sensor_id;sensor_type;location;lat;lon;timestamp;temperature;humidity
17346;DHT22;8790;53.590;10.002;2023-02-05T00:02:22;2.00;99.90
17346;DHT22;8790;53.590;10.002;2023-02-05T00:04:54;1.90;99.90
17346;DHT22;8790;53.590;10.002;2023-02-05T00:07:25;1.90;99.90
17346;DHT22;8790;53.590;10.002;2023-02-05T00:09:57;2.00;99.90
17346;DHT22;8790;53.590;10.002;2023-02-05T00:12:30;2.00;99.90
17346;DHT22;8790;53.590;10.002;2023-02-05T00:15:02;2.00;99.90
17346;DHT22;8790;53.590;10.002;2023-02-05T00:17:34;2.00;99.90
17346;DHT22;8790;53.590;10.002;2023-02-05T00:20:07;1.90;99.90
17346;DHT22;8790;53.590;10.002;2023-02-05T00:22:39;1.80;99.90
17346;DHT22;8790;53.590;10.002;2023-02-05T00:25:11;1.80;99.90
17346;DHT22;8790;53.590;10.002;2023-02-05T00:27:44;1.90;99.90
17346;DHT22;8790;53.590;10.002;2023-02-05T00:30:18;1.80;99.90
17346;DHT22;8790;53.590;10.002;2023-02-05T00:32:50;1.80;99.90
17346;DHT22;8790;53.590;10.002;2023-02-05T00:35:21;1.80;99.90
17346;DHT22;8790;53.590;10.002;2023-02-05T00:37:53;1.80;99.90
17346;DHT22;8790;53.590;10.002;2023-02-05T00:40:25;1.80;99.90
17346;DHT22;8790;53.590;10.002;2023-02-05T00:42:58;1.70;99.90
17346;DHT22;8790;53.590;10.002;2023-02-05T00:45:30;1.70;99.90
17346;DHT22;8790;53.590;10.002;2023-02-05T00:48:05;1.70;99.90
17346;DHT22;8790;53.590;10.002;2023-02-05T00:50:39;1.70;99.90
17346;DHT22;8790;53.590;10.002;2023-02-05T00:53:14;1.60;99.90
17346;DHT22;8790;53.590;10.002;2023-02-05T00:55:46;1.60;99.90
17346;DHT22;8790;53.590;10.002;2023-02-05T00:58:19;1.60;99.90
17346;DHT22;8790;53.590;10.002;2023-02-05T01:00:51;1.60;99.90
17346;DHT22;8790;53.590;10.002;2023-02-05T01:03:23;1.60;99.90
17346;DHT22;8790;53.590;10.002;2023-02-05T01:05:55;1.60;99.90
17346;DHT22;8790;53.590;10.002;2023-02-05T01:08:27;1.60;99.90
17346;DHT22;8790;53.590;10.002;2023-02-05T01:10:59;1.60;99.90
17346;DHT22;8790;53.590;10.002;2023-02-05T01:13:32;1.50;99.90
17346;DHT22;8790;53.590;10.002;2023-02-05T01:16:05;1.60;99.90
17346;DHT22;8790;53.590;10.002;2023-02-05T01:18:37;1.50;99.90
17346;DHT22;8790;53.590;10.002;2023-02-05T01:21:13;1.50;99.90
17346;DHT22;8790;53.590;10.002;2023-02-05T01:23:45;1.60;99.90
17346;DHT22;8790;53.590;10.002;2023-02-05T01:26:17;1.50;99.90
17346;DHT22;8790;53.590;10.002;2023-02-05T01:28:50;1.50;99.90
17346;DHT22;8790;53.590;10.002;2023-02-05T01:31:24;1.40;99.90
17346;DHT22;8790;53.590;10.002;2023-02-05T01:33:57;1.40;99.90
17346;DHT22;8790;53.590;10.002;2023-02-05T01:36:29;1.30;99.90
17346;DHT22;8790;53.590;10.002;2023-02-05T01:39:00;1.40;99.90
17346;DHT22;8790;53.590;10.002;2023-02-05T01:41:32;1.40;99.90
17346;DHT22;8790;53.590;10.002;2023-02-05T01:44:08;1.30;99.90
17346;DHT22;8790;53.590;10.002;2023-02-05T01:46:45;1.30;99.90
17346;DHT22;8790;53.590;10.002;2023-02-05T01:49:22;1.20;99.90
17346;DHT22;8790;53.590;10.002;2023-02-05T01:52:00;1.20;99.90
17346;DHT22;8790;53.590;10.002;2023-02-05T01:54:35;1.30;99.90
17346;DHT22;8790;53.590;10.002;2023-02-05T01:57:10;1.30;99.90
17346;DHT22;8790;53.590;10.002;2023-02-05T01:59:47;1.30;99.90
17346;DHT22;8790;53.590;10.002;2023-02-05T02:02:20;1.30;99.90
17346;DHT22;8790;53.590;10.002;2023-02-05T02:04:54;1.20;99.90
17346;DHT22;8790;53.590;10.002;2023-02-05T02:07:28;1.20;99.90
17346;DHT22;8790;53.590;10.002;2023-02-05T02:10:00;1.20;99.90
17346;DHT22;8790;53.590;10.002;2023-02-05T02:12:34;1.20;99.90
17346;DHT22;8790;53.590;10.002;2023-02-05T02:15:12;1.20;99.90
17346;DHT22;8790;53.590;10.002;2023-02-05T02:17:47;1.20;99.90
17346;DHT22;8790;53.590;10.002;2023-02-05T02:20:22;1.10;99.90
17346;DHT22;8790;53.590;10.002;2023-02-05T02:23:10;1.30;99.90
17346;DHT22;8790;53.590;10.002;2023-02-05T02:28:44;1.20;99.90
17346;DHT22;8790;53.590;10.002;2023-02-05T02:31:20;1.20;99.90
17346;DHT22;8790;53.590;10.002;2023-02-05T02:34:01;1.10;99.90
17346;DHT22;8790;53.590;10.002;2023-02-05T02:36:40;1.10;99.90
17346;DHT22;8790;53.590;10.002;2023-02-05T02:39:18;1.10;99.90
17346;DHT22;8790;53.590;10.002;2023-02-05T02:41:53;1.20;99.90
17346;DHT22;8790;53.590;10.002;2023-02-05T02:44:36;1.20;99.90
17346;DHT22;8790;53.590;10.002;2023-02-05T02:47:13;1.10;99.90
17346;DHT22;8790;53.590;10.002;2023-02-05T02:49:48;1.30;99.90
17346;DHT22;8790;53.590;10.002;2023-02-05T02:52:23;1.20;99.90
17346;DHT22;8790;53.590;10.002;2023-02-05T02:54:57;1.20;99.90
17346;DHT22;8790;53.590;10.002;2023-02-05T02:57:38;1.10;99.90
17346;DHT22;8790;53.590;10.002;2023-02-05T03:00:14;1.10;99.90
17346;DHT22;8790;53.590;10.002;2023-02-05T03:02:49;1.10;99.90
17346;DHT22;8790;53.590;10.002;2023-02-05T03:05:23;1.10;99.90
17346;DHT22;8790;53.590;10.002;2023-02-05T03:08:00;1.20;99.90
17346;DHT22;8790;53.590;10.002;2023-02-05T03:10:36;1.30;99.90
17346;DHT22;8790;53.590;10.002;2023-02-05T03:13:11;1.20;99.90
17346;DHT22;8790;53.590;10.002;2023-02-05T03:15:49;1.20;99.90
17346;DHT22;8790;53.590;10.002;2023-02-05T03:18:21;1.10;99.90
17346;DHT22;8790;53.590;10.002;2023-02-05T03:20:55;1.10;99.90
17346;DHT22;8790;53.590;10.002;2023-02-05T03:23:29;1.10;99.90
17346;DHT22;8790;53.590;10.002;2023-02-05T03:26:01;1.20;99.90
17346;DHT22;8790;53.590;10.002;2023-02-05T03:28:42;1.20;99.90
17346;DHT22;8790;53.590;10.002;2023-02-05T03:31:18;1.20;99.90
17346;DHT22;8790;53.590;10.002;2023-02-05T03:33:58;1.20;99.90
17346;DHT22;8790;53.590;10.002;2023-02-05T03:36:46;1.20;99.90
17346;DHT22;8790;53.590;10.002;2023-02-05T03:39:25;1.30;99.90
17346;DHT22;8790;53.590;10.002;2023-02-05T03:42:10;1.20;99.90
17346;DHT22;8790;53.590;10.002;2023-02-05T03:45:09;1.30;99.90
17346;DHT22;8790;53.590;10.002;2023-02-05T03:47:59;1.30;99.90
17346;DHT22;8790;53.590;10.002;2023-02-05T03:50:38;1.40;99.90
17346;DHT22;8790;53.590;10.002;2023-02-05T03:53:18;1.40;99.90
17346;DHT22;8790;53.590;10.002;2023-02-05T03:55:58;1.40;99.90
17346;DHT22;8790;53.590;10.002;2023-02-05T03:58:35;1.30;99.90
17346;DHT22;8790;53.590;10.002;2023-02-05T04:01:10;1.40;99.90
17346;DHT22;8790;53.590;10.002;2023-02-05T04:03:45;1.40;99.90
17346;DHT22;8790;53.590;10.002;2023-02-05T04:06:17;1.20;99.90
17346;DHT22;8790;53.590;10.002;2023-02-05T04:08:51;1.20;99.90
17346;DHT22;8790;53.590;10.002;2023-02-05T04:11:23;1.20;99.90
17346;DHT22;8790;53.590;10.002;2023-02-05T04:13:55;1.20;99.90
17346;DHT22;8790;53.590;10.002;2023-02-05T04:16:27;1.20;99.90
17346;DHT22;8790;53.590;10.002;2023-02-05T04:19:01;1.20;99.90
17346;DHT22;8790;53.590;10.002;2023-02-05T04:21:33;1.10;99.90
17346;DHT22;8790;53.590;10.002;2023-02-05T04:24:05;1.20;99.90
17346;DHT22;8790;53.590;10.002;2023-02-05T04:26:37;1.20;99.90
17346;DHT22;8790;53.590;10.002;2023-02-05T04:29:10;1.30;99.90
17346;DHT22;8790;53.590;10.002;2023-02-05T04:31:47;1.30;99.90
17346;DHT22;8790;53.590;10.002;2023-02-05T04:34:20;1.30;99.90
17346;DHT22;8790;53.590;10.002;2023-02-05T04:36:53;1.30;99.90
17346;DHT22;8790;53.590;10.002;2023-02-05T04:39:26;1.30;99.90
17346;DHT22;8790;53.590;10.002;2023-02-05T04:41:58;1.30;99.90
17346;DHT22;8790;53.590;10.002;2023-02-05T04:44:31;1.30;99.90
17346;DHT22;8790;53.590;10.002;2023-02-05T04:47:03;1.20;99.90
17346;DHT22;8790;53.590;10.002;2023-02-05T04:49:36;1.20;99.90
17346;DHT22;8790;53.590;10.002;2023-02-05T04:52:07;1.20;99.90
17346;DHT22;8790;53.590;10.002;2023-02-05T04:54:39;1.20;99.90
17346;DHT22;8790;53.590;10.002;2023-02-05T04:57:11;1.10;99.90
17346;DHT22;8790;53.590;10.002;2023-02-05T04:59:42;1.10;99.90
17346;DHT22;8790;53.590;10.002;2023-02-05T05:02:14;1.20;99.90
17346;DHT22;8790;53.590;10.002;2023-02-05T05:04:47;1.20;99.90
17346;DHT22;8790;53.590;10.002;2023-02-05T05:07:19;1.20;99.90
17346;DHT22;8790;53.590;10.002;2023-02-05T05:09:51;1.20;99.90
17346;DHT22;8790;53.590;10.002;2023-02-05T05:12:22;1.20;99.90
17346;DHT22;8790;53.590;10.002;2023-02-05T05:14:54;1.20;99.90
17346;DHT22;8790;53.590;10.002;2023-02-05T05:17:26;1.20;99.90
17346;DHT22;8790;53.590;10.002;2023-02-05T05:19:59;1.20;99.90
17346;DHT22;8790;53.590;10.002;2023-02-05T05:22:31;1.10;99.90
17346;DHT22;8790;53.590;10.002;2023-02-05T05:25:03;1.10;99.90
17346;DHT22;8790;53.590;10.002;2023-02-05T05:27:35;1.10;99.90
17346;DHT22;8790;53.590;10.002;2023-02-05T05:30:07;1.20;99.90
17346;DHT22;8790;53.590;10.002;2023-02-05T05:32:39;1.30;99.90
17346;DHT22;8790;53.590;10.002;2023-02-05T05:35:12;1.30;99.90
17346;DHT22;8790;53.590;10.002;2023-02-05T05:37:44;1.20;99.90
17346;DHT22;8790;53.590;10.002;2023-02-05T05:40:16;1.20;99.90
17346;DHT22;8790;53.590;10.002;2023-02-05T05:43:08;1.20;99.90
17346;DHT22;8790;53.590;10.002;2023-02-05T05:45:57;1.30;99.90
17346;DHT22;8790;53.590;10.002;2023-02-05T05:48:29;1.30;99.90
17346;DHT22;8790;53.590;10.002;2023-02-05T05:51:03;1.30;99.90
17346;DHT22;8790;53.590;10.002;2023-02-05T05:53:34;1.20;99.90
17346;DHT22;8790;53.590;10.002;2023-02-05T05:56:06;1.30;99.90
17346;DHT22;8790;53.590;10.002;2023-02-05T05:58:38;1.30;99.90
17346;DHT22;8790;53.590;10.002;2023-02-05T06:01:11;1.20;99.90
17346;DHT22;8790;53.590;10.002;2023-02-05T06:03:44;1.20;99.90
17346;DHT22;8790;53.590;10.002;2023-02-05T06:06:17;1.10;99.90
17346;DHT22;8790;53.590;10.002;2023-02-05T06:08:49;1.20;99.90
17346;DHT22;8790;53.590;10.002;2023-02-05T06:11:20;1.30;99.90
17346;DHT22;8790;53.590;10.002;2023-02-05T06:13:52;1.20;99.90
17346;DHT22;8790;53.590;10.002;2023-02-05T06:16:24;1.30;99.90
17346;DHT22;8790;53.590;10.002;2023-02-05T06:18:55;1.30;99.90
17346;DHT22;8790;53.590;10.002;2023-02-05T06:21:28;1.30;99.90
17346;DHT22;8790;53.590;10.002;2023-02-05T06:24:00;1.30;99.90
17346;DHT22;8790;53.590;10.002;2023-02-05T06:26:32;1.40;99.90
17346;DHT22;8790;53.590;10.002;2023-02-05T06:29:04;1.40;99.90
17346;DHT22;8790;53.590;10.002;2023-02-05T06:31:35;1.40;99.90
17346;DHT22;8790;53.590;10.002;2023-02-05T06:34:07;1.40;99.90
17346;DHT22;8790;53.590;10.002;2023-02-05T06:36:40;1.30;99.90
17346;DHT22;8790;53.590;10.002;2023-02-05T06:39:12;1.20;99.90
17346;DHT22;8790;53.590;10.002;2023-02-05T06:41:44;1.20;99.90
17346;DHT22;8790;53.590;10.002;2023-02-05T06:44:15;1.10;99.90
17346;DHT22;8790;53.590;10.002;2023-02-05T06:46:47;1.20;99.90
17346;DHT22;8790;53.590;10.002;2023-02-05T06:49:19;1.20;99.90
17346;DHT22;8790;53.590;10.002;2023-02-05T06:51:52;1.30;99.90
17346;DHT22;8790;53.590;10.002;2023-02-05T06:54:24;1.30;99.90
17346;DHT22;8790;53.590;10.002;2023-02-05T06:56:56;1.30;99.90
17346;DHT22;8790;53.590;10.002;2023-02-05T06:59:27;1.20;99.90
17346;DHT22;8790;53.590;10.002;2023-02-05T07:01:59;1.20;99.90
17346;DHT22;8790;53.590;10.002;2023-02-05T07:04:31;1.20;99.90
17346;DHT22;8790;53.590;10.002;2023-02-05T07:07:04;1.30;99.90
17346;DHT22;8790;53.590;10.002;2023-02-05T07:09:36;1.30;99.90
17346;DHT22;8790;53.590;10.002;2023-02-05T07:12:07;1.30;99.90
17346;DHT22;8790;53.590;10.002;2023-02-05T07:14:40;1.30;99.90
17346;DHT22;8790;53.590;10.002;2023-02-05T07:17:12;1.30;99.90
17346;DHT22;8790;53.590;10.002;2023-02-05T07:19:44;1.30;99.90
17346;DHT22;8790;53.590;10.002;2023-02-05T07:22:17;1.30;99.90
17346;DHT22;8790;53.590;10.002;2023-02-05T07:24:48;1.40;99.90
17346;DHT22;8790;53.590;10.002;2023-02-05T07:27:20;1.30;99.90
17346;DHT22;8790;53.590;10.002;2023-02-05T07:29:52;1.20;99.90
17346;DHT22;8790;53.590;10.002;2023-02-05T07:32:24;1.30;99.90
17346;DHT22;8790;53.590;10.002;2023-02-05T07:34:55;1.30;99.90
17346;DHT22;8790;53.590;10.002;2023-02-05T07:37:28;1.40;99.90
17346;DHT22;8790;53.590;10.002;2023-02-05T07:40:00;1.30;99.90
17346;DHT22;8790;53.590;10.002;2023-02-05T07:42:32;1.40;99.90
17346;DHT22;8790;53.590;10.002;2023-02-05T07:45:06;1.50;99.90
17346;DHT22;8790;53.590;10.002;2023-02-05T07:47:38;1.40;99.90
17346;DHT22;8790;53.590;10.002;2023-02-05T07:50:10;1.40;99.90
17346;DHT22;8790;53.590;10.002;2023-02-05T07:52:43;1.30;99.90
17346;DHT22;8790;53.590;10.002;2023-02-05T07:55:15;1.40;99.90
17346;DHT22;8790;53.590;10.002;2023-02-05T07:57:46;1.40;99.90
17346;DHT22;8790;53.590;10.002;2023-02-05T08:00:18;1.30;99.90
17346;DHT22;8790;53.590;10.002;2023-02-05T08:02:50;1.40;99.90
17346;DHT22;8790;53.590;10.002;2023-02-05T08:05:22;1.40;99.90
17346;DHT22;8790;53.590;10.002;2023-02-05T08:07:55;1.60;99.90
17346;DHT22;8790;53.590;10.002;2023-02-05T08:10:27;1.50;99.90
17346;DHT22;8790;53.590;10.002;2023-02-05T08:12:58;1.50;99.90
17346;DHT22;8790;53.590;10.002;2023-02-05T08:15:30;1.50;99.90
17346;DHT22;8790;53.590;10.002;2023-02-05T08:18:02;1.50;99.90
17346;DHT22;8790;53.590;10.002;2023-02-05T08:20:34;1.50;99.90
17346;DHT22;8790;53.590;10.002;2023-02-05T08:23:07;1.50;99.90
17346;DHT22;8790;53.590;10.002;2023-02-05T08:25:38;1.50;99.90
17346;DHT22;8790;53.590;10.002;2023-02-05T08:28:10;1.60;99.90
17346;DHT22;8790;53.590;10.002;2023-02-05T08:30:42;1.50;99.90
17346;DHT22;8790;53.590;10.002;2023-02-05T08:33:14;1.60;99.90
17346;DHT22;8790;53.590;10.002;2023-02-05T08:35:45;1.50;99.90
17346;DHT22;8790;53.590;10.002;2023-02-05T08:38:18;1.60;99.90
17346;DHT22;8790;53.590;10.002;2023-02-05T08:40:50;1.60;99.90
17346;DHT22;8790;53.590;10.002;2023-02-05T08:43:22;1.70;99.90
17346;DHT22;8790;53.590;10.002;2023-02-05T08:45:54;1.70;99.90
17346;DHT22;8790;53.590;10.002;2023-02-05T08:48:25;1.70;99.90
17346;DHT22;8790;53.590;10.002;2023-02-05T08:50:57;1.70;99.90
17346;DHT22;8790;53.590;10.002;2023-02-05T08:53:31;1.70;99.90
17346;DHT22;8790;53.590;10.002;2023-02-05T08:56:03;1.70;99.90
17346;DHT22;8790;53.590;10.002;2023-02-05T08:58:36;1.80;99.90
17346;DHT22;8790;53.590;10.002;2023-02-05T09:01:09;1.80;99.90
17346;DHT22;8790;53.590;10.002;2023-02-05T09:03:41;1.80;99.90
17346;DHT22;8790;53.590;10.002;2023-02-05T09:06:14;1.90;99.90
17346;DHT22;8790;53.590;10.002;2023-02-05T09:08:47;1.90;99.90
17346;DHT22;8790;53.590;10.002;2023-02-05T09:11:20;2.00;99.90
17346;DHT22;8790;53.590;10.002;2023-02-05T09:13:51;2.00;99.90
17346;DHT22;8790;53.590;10.002;2023-02-05T09:16:24;2.00;99.90
17346;DHT22;8790;53.590;10.002;2023-02-05T09:18:56;2.00;99.90
17346;DHT22;8790;53.590;10.002;2023-02-05T09:21:28;1.90;99.90
17346;DHT22;8790;53.590;10.002;2023-02-05T09:24:02;2.00;99.90
17346;DHT22;8790;53.590;10.002;2023-02-05T09:26:33;2.00;99.90
17346;DHT22;8790;53.590;10.002;2023-02-05T09:29:07;2.10;99.90
17346;DHT22;8790;53.590;10.002;2023-02-05T09:31:39;2.10;99.90
17346;DHT22;8790;53.590;10.002;2023-02-05T09:34:11;2.10;99.90
17346;DHT22;8790;53.590;10.002;2023-02-05T09:36:43;2.00;99.90
17346;DHT22;8790;53.590;10.002;2023-02-05T09:39:16;2.20;99.90
17346;DHT22;8790;53.590;10.002;2023-02-05T09:41:53;2.20;99.90
17346;DHT22;8790;53.590;10.002;2023-02-05T09:44:44;2.30;99.90
17346;DHT22;8790;53.590;10.002;2023-02-05T09:47:21;2.20;99.90
17346;DHT22;8790;53.590;10.002;2023-02-05T09:50:01;2.30;99.90
17346;DHT22;8790;53.590;10.002;2023-02-05T09:52:36;2.40;99.90
17346;DHT22;8790;53.590;10.002;2023-02-05T09:55:18;2.50;99.90
17346;DHT22;8790;53.590;10.002;2023-02-05T09:57:52;2.40;99.90
17346;DHT22;8790;53.590;10.002;2023-02-05T10:00:28;2.50;99.90
17346;DHT22;8790;53.590;10.002;2023-02-05T10:03:08;2.50;99.90
17346;DHT22;8790;53.590;10.002;2023-02-05T10:08:36;2.50;99.90
17346;DHT22;8790;53.590;10.002;2023-02-05T10:11:17;2.50;99.90
17346;DHT22;8790;53.590;10.002;2023-02-05T10:14:00;2.50;99.90
17346;DHT22;8790;53.590;10.002;2023-02-05T10:16:52;2.50;99.90
17346;DHT22;8790;53.590;10.002;2023-02-05T10:19:46;2.50;99.90
17346;DHT22;8790;53.590;10.002;2023-02-05T10:22:25;2.50;99.90
17346;DHT22;8790;53.590;10.002;2023-02-05T10:25:28;2.50;99.90
17346;DHT22;8790;53.590;10.002;2023-02-05T10:28:15;2.50;99.90
17346;DHT22;8790;53.590;10.002;2023-02-05T10:30:54;2.50;99.90
17346;DHT22;8790;53.590;10.002;2023-02-05T10:33:40;2.50;99.90
17346;DHT22;8790;53.590;10.002;2023-02-05T10:36:13;2.50;99.90
17346;DHT22;8790;53.590;10.002;2023-02-05T10:38:46;2.60;99.90
17346;DHT22;8790;53.590;10.002;2023-02-05T10:41:23;2.70;99.90
17346;DHT22;8790;53.590;10.002;2023-02-05T10:44:02;2.90;99.90
17346;DHT22;8790;53.590;10.002;2023-02-05T10:46:36;2.80;99.90
17346;DHT22;8790;53.590;10.002;2023-02-05T10:49:11;2.80;99.90
17346;DHT22;8790;53.590;10.002;2023-02-05T10:51:46;2.90;99.90
17346;DHT22;8790;53.590;10.002;2023-02-05T10:54:22;2.90;99.90
17346;DHT22;8790;53.590;10.002;2023-02-05T10:56:56;2.90;99.90
17346;DHT22;8790;53.590;10.002;2023-02-05T10:59:32;3.00;99.90
17346;DHT22;8790;53.590;10.002;2023-02-05T11:02:08;3.00;99.90
17346;DHT22;8790;53.590;10.002;2023-02-05T11:04:44;3.00;99.90
17346;DHT22;8790;53.590;10.002;2023-02-05T11:07:22;3.00;99.90
17346;DHT22;8790;53.590;10.002;2023-02-05T11:09:57;3.10;99.90
17346;DHT22;8790;53.590;10.002;2023-02-05T11:12:43;3.00;99.90
17346;DHT22;8790;53.590;10.002;2023-02-05T11:15:22;3.00;99.90
17346;DHT22;8790;53.590;10.002;2023-02-05T11:17:57;3.00;99.90
17346;DHT22;8790;53.590;10.002;2023-02-05T11:20:31;3.10;99.90
17346;DHT22;8790;53.590;10.002;2023-02-05T11:23:07;3.10;99.90
17346;DHT22;8790;53.590;10.002;2023-02-05T11:25:48;3.20;99.90
17346;DHT22;8790;53.590;10.002;2023-02-05T11:28:26;3.20;99.90
17346;DHT22;8790;53.590;10.002;2023-02-05T11:31:18;3.20;99.90
17346;DHT22;8790;53.590;10.002;2023-02-05T11:33:52;3.20;99.90
17346;DHT22;8790;53.590;10.002;2023-02-05T11:36:49;3.30;99.90
17346;DHT22;8790;53.590;10.002;2023-02-05T11:39:28;3.30;99.90
17346;DHT22;8790;53.590;10.002;2023-02-05T11:42:08;3.30;99.90
17346;DHT22;8790;53.590;10.002;2023-02-05T11:44:46;3.30;99.90
17346;DHT22;8790;53.590;10.002;2023-02-05T11:47:24;3.30;99.90
17346;DHT22;8790;53.590;10.002;2023-02-05T11:49:57;3.40;99.90
17346;DHT22;8790;53.590;10.002;2023-02-05T11:52:32;3.40;99.90
17346;DHT22;8790;53.590;10.002;2023-02-05T11:55:06;3.40;99.90
17346;DHT22;8790;53.590;10.002;2023-02-05T11:57:38;3.40;99.90
17346;DHT22;8790;53.590;10.002;2023-02-05T12:00:19;3.40;99.90
17346;DHT22;8790;53.590;10.002;2023-02-05T12:03:02;3.40;99.90
17346;DHT22;8790;53.590;10.002;2023-02-05T12:05:37;3.40;99.90
17346;DHT22;8790;53.590;10.002;2023-02-05T12:08:14;3.50;99.90
17346;DHT22;8790;53.590;10.002;2023-02-05T12:10:56;3.50;99.90
17346;DHT22;8790;53.590;10.002;2023-02-05T12:13:44;3.50;99.90
17346;DHT22;8790;53.590;10.002;2023-02-05T12:16:34;3.60;99.90
17346;DHT22;8790;53.590;10.002;2023-02-05T12:19:19;3.60;99.90
17346;DHT22;8790;53.590;10.002;2023-02-05T12:21:57;3.60;99.90
17346;DHT22;8790;53.590;10.002;2023-02-05T12:24:54;3.70;99.90
17346;DHT22;8790;53.590;10.002;2023-02-05T12:27:40;3.70;99.90
17346;DHT22;8790;53.590;10.002;2023-02-05T12:30:28;3.70;99.90
17346;DHT22;8790;53.590;10.002;2023-02-05T12:33:11;3.80;99.90
17346;DHT22;8790;53.590;10.002;2023-02-05T12:35:58;3.70;99.90
17346;DHT22;8790;53.590;10.002;2023-02-05T12:38:41;3.70;99.90
17346;DHT22;8790;53.590;10.002;2023-02-05T12:41:22;3.70;99.90
17346;DHT22;8790;53.590;10.002;2023-02-05T12:44:03;3.70;99.90
17346;DHT22;8790;53.590;10.002;2023-02-05T12:46:55;3.60;99.90
17346;DHT22;8790;53.590;10.002;2023-02-05T12:49:40;3.70;99.90
17346;DHT22;8790;53.590;10.002;2023-02-05T12:52:32;3.80;99.90
17346;DHT22;8790;53.590;10.002;2023-02-05T12:55:16;3.90;99.90
17346;DHT22;8790;53.590;10.002;2023-02-05T12:57:53;3.80;99.90
17346;DHT22;8790;53.590;10.002;2023-02-05T13:00:29;3.90;99.90
17346;DHT22;8790;53.590;10.002;2023-02-05T13:03:07;3.90;99.90
17346;DHT22;8790;53.590;10.002;2023-02-05T13:05:45;4.00;99.90
17346;DHT22;8790;53.590;10.002;2023-02-05T13:08:28;4.00;99.90
17346;DHT22;8790;53.590;10.002;2023-02-05T13:11:05;4.10;99.90
17346;DHT22;8790;53.590;10.002;2023-02-05T13:13:43;4.00;99.90
17346;DHT22;8790;53.590;10.002;2023-02-05T13:16:18;4.00;99.90
17346;DHT22;8790;53.590;10.002;2023-02-05T13:18:57;4.10;99.90
17346;DHT22;8790;53.590;10.002;2023-02-05T13:21:31;4.10;99.90
17346;DHT22;8790;53.590;10.002;2023-02-05T13:24:31;4.00;99.90
17346;DHT22;8790;53.590;10.002;2023-02-05T13:27:26;4.10;99.90
17346;DHT22;8790;53.590;10.002;2023-02-05T13:30:20;4.20;99.90
17346;DHT22;8790;53.590;10.002;2023-02-05T13:32:55;4.20;99.90
17346;DHT22;8790;53.590;10.002;2023-02-05T13:35:31;4.20;99.90
17346;DHT22;8790;53.590;10.002;2023-02-05T13:41:35;4.30;99.90
17346;DHT22;8790;53.590;10.002;2023-02-05T13:44:30;4.40;99.90
17346;DHT22;8790;53.590;10.002;2023-02-05T13:47:25;4.50;99.90
17346;DHT22;8790;53.590;10.002;2023-02-05T13:56:29;4.50;99.90
17346;DHT22;8790;53.590;10.002;2023-02-05T13:59:10;4.50;99.90
17346;DHT22;8790;53.590;10.002;2023-02-05T14:01:49;4.50;99.90
17346;DHT22;8790;53.590;10.002;2023-02-05T14:04:24;4.40;99.90
17346;DHT22;8790;53.590;10.002;2023-02-05T14:06:59;4.50;99.90
17346;DHT22;8790;53.590;10.002;2023-02-05T14:09:34;4.50;99.90
17346;DHT22;8790;53.590;10.002;2023-02-05T14:12:11;4.50;99.90
17346;DHT22;8790;53.590;10.002;2023-02-05T14:14:43;4.50;99.90
17346;DHT22;8790;53.590;10.002;2023-02-05T14:17:51;4.50;99.90
17346;DHT22;8790;53.590;10.002;2023-02-05T14:20:31;4.50;99.90
17346;DHT22;8790;53.590;10.002;2023-02-05T14:23:12;4.50;99.90
17346;DHT22;8790;53.590;10.002;2023-02-05T14:26:07;4.40;99.90
17346;DHT22;8790;53.590;10.002;2023-02-05T14:28:45;4.40;99.90
17346;DHT22;8790;53.590;10.002;2023-02-05T14:31:46;4.50;99.90
17346;DHT22;8790;53.590;10.002;2023-02-05T14:34:46;4.40;99.90
17346;DHT22;8790;53.590;10.002;2023-02-05T14:37:28;4.40;99.90
17346;DHT22;8790;53.590;10.002;2023-02-05T14:40:24;4.50;99.90
17346;DHT22;8790;53.590;10.002;2023-02-05T14:42:59;4.40;99.90
17346;DHT22;8790;53.590;10.002;2023-02-05T14:45:42;4.40;99.90
17346;DHT22;8790;53.590;10.002;2023-02-05T14:48:20;4.30;99.90
17346;DHT22;8790;53.590;10.002;2023-02-05T14:51:04;4.30;99.90
17346;DHT22;8790;53.590;10.002;2023-02-05T14:53:37;4.30;99.90
17346;DHT22;8790;53.590;10.002;2023-02-05T14:56:22;4.50;99.90
17346;DHT22;8790;53.590;10.002;2023-02-05T14:58:59;4.60;99.90
17346;DHT22;8790;53.590;10.002;2023-02-05T15:01:44;4.60;99.90
17346;DHT22;8790;53.590;10.002;2023-02-05T15:04:31;4.60;99.90
17346;DHT22;8790;53.590;10.002;2023-02-05T15:07:09;4.60;99.90
17346;DHT22;8790;53.590;10.002;2023-02-05T15:09:47;4.60;99.90
17346;DHT22;8790;53.590;10.002;2023-02-05T15:12:39;4.60;99.90
17346;DHT22;8790;53.590;10.002;2023-02-05T15:15:25;4.70;99.90
17346;DHT22;8790;53.590;10.002;2023-02-05T15:18:04;4.70;99.90
17346;DHT22;8790;53.590;10.002;2023-02-05T15:20:38;4.60;99.90
17346;DHT22;8790;53.590;10.002;2023-02-05T15:23:29;4.50;99.90
17346;DHT22;8790;53.590;10.002;2023-02-05T15:26:06;4.50;99.90
17346;DHT22;8790;53.590;10.002;2023-02-05T15:28:43;4.40;99.90
17346;DHT22;8790;53.590;10.002;2023-02-05T15:31:28;4.40;99.90
17346;DHT22;8790;53.590;10.002;2023-02-05T15:36:55;4.50;99.90
17346;DHT22;8790;53.590;10.002;2023-02-05T15:39:31;4.40;99.90
17346;DHT22;8790;53.590;10.002;2023-02-05T15:42:05;4.50;99.90
17346;DHT22;8790;53.590;10.002;2023-02-05T15:44:37;4.60;99.90
17346;DHT22;8790;53.590;10.002;2023-02-05T15:47:12;4.70;99.90
17346;DHT22;8790;53.590;10.002;2023-02-05T15:49:50;4.70;99.90
17346;DHT22;8790;53.590;10.002;2023-02-05T15:52:24;4.70;99.90
17346;DHT22;8790;53.590;10.002;2023-02-05T15:55:00;4.70;99.90
17346;DHT22;8790;53.590;10.002;2023-02-05T15:57:39;4.70;99.90
17346;DHT22;8790;53.590;10.002;2023-02-05T16:00:18;4.70;99.90
17346;DHT22;8790;53.590;10.002;2023-02-05T16:02:53;4.70;99.90
17346;DHT22;8790;53.590;10.002;2023-02-05T16:05:30;4.70;99.90
17346;DHT22;8790;53.590;10.002;2023-02-05T16:08:13;4.60;99.90
17346;DHT22;8790;53.590;10.002;2023-02-05T16:10:51;4.60;99.90
17346;DHT22;8790;53.590;10.002;2023-02-05T16:13:24;4.60;99.90
17346;DHT22;8790;53.590;10.002;2023-02-05T16:16:00;4.60;99.90
17346;DHT22;8790;53.590;10.002;2023-02-05T16:18:37;4.70;99.90
17346;DHT22;8790;53.590;10.002;2023-02-05T16:21:15;4.70;99.90
17346;DHT22;8790;53.590;10.002;2023-02-05T16:23:52;4.70;99.90
17346;DHT22;8790;53.590;10.002;2023-02-05T16:26:29;4.70;99.90
17346;DHT22;8790;53.590;10.002;2023-02-05T16:29:04;4.70;99.90
17346;DHT22;8790;53.590;10.002;2023-02-05T16:31:37;4.60;99.90
17346;DHT22;8790;53.590;10.002;2023-02-05T16:34:14;4.50;99.90
17346;DHT22;8790;53.590;10.002;2023-02-05T16:36:48;4.50;99.90
17346;DHT22;8790;53.590;10.002;2023-02-05T16:39:25;4.60;99.90
17346;DHT22;8790;53.590;10.002;2023-02-05T16:42:03;4.50;99.90
17346;DHT22;8790;53.590;10.002;2023-02-05T16:44:37;4.50;99.90
17346;DHT22;8790;53.590;10.002;2023-02-05T16:47:14;4.50;99.90
17346;DHT22;8790;53.590;10.002;2023-02-05T16:49:47;4.60;99.90
17346;DHT22;8790;53.590;10.002;2023-02-05T16:52:28;4.50;99.90
17346;DHT22;8790;53.590;10.002;2023-02-05T16:55:05;4.50;99.90
17346;DHT22;8790;53.590;10.002;2023-02-05T16:57:38;4.50;99.90
17346;DHT22;8790;53.590;10.002;2023-02-05T17:00:19;4.50;99.90
17346;DHT22;8790;53.590;10.002;2023-02-05T17:02:53;4.50;99.90